Pagrindinis puslapis
METAR-TAF:

METAR-TAF

Oro uostai :

Uhanas, Kinija

platuma: 30-37N, ilguma: 114-08E, Aukštis: 23 m

Dabartinis oras

Ataskaita buvo paskelbta 16 minutes, ne 07:00 UTC
Vėjas 4 kt iš Vakarų, svyruoja nuo Pietų/Pietvakarių ir Vakarų/Šiaurės Vakarų
Temperatūra 33°C
Drėgmė 36%
Slėgis 1008 hPa
Matomumas 10 km arba daugiau
Mažai debesys ne aukštis 3000 ft

METAR: ZHHH 270700Z 26002MPS 200V300 9999 FEW030 33/16 Q1008 NOSIG

Laikas: 15:16 (07:16 UTC)

Prognozė

Ataskaita buvo paskelbta 4 valandos ir 10 minutes, ne 03:06 UTC
Prognozė galioja nuo 27 metu 06 UTC su 28 metu 06 UTC
Vėjas 6 kt iš Pietų/Pietvakarių
Matomumas: 6000 m

TAF: ZHHH 270306Z 2706/2806 21003MPS 6000 NSC TX31/2706Z TN20/2721Z

Orai ataskaitas ir orų prognozės (METAR, TAF).

turimą stotys yra geltonos ir raudonos taškus žemėlapyje.

Perkelti pele per norėdami pamatyti stoties vardą.

Tada spustelėkite, norėdami matyti oro stebėjimo ir prognozės.

Norėdami pakeisti žemėlapį: spustelėkite ant žalios mygtukų su juodo kryžiaus žemyn,; žalią mygtuką su brūkšneliu, jei norite nutolinti; arba žalių rodyklių gretimoms žemėlapius.


METAR-TAF: